createdAt,value
2023-04-10T00:00:59.428Z,6.04
2023-04-10T00:01:56.458Z,6.07
2023-04-10T00:02:56.653Z,6.12
2023-04-10T00:03:56.857Z,6.17
2023-04-10T00:04:56.430Z,6.27
2023-04-10T00:05:56.379Z,6.36
2023-04-10T00:06:56.357Z,6.42
2023-04-10T00:07:56.353Z,6.44
2023-04-10T00:08:56.347Z,6.44
2023-04-10T00:09:56.367Z,6.45
2023-04-10T00:10:56.292Z,6.48
2023-04-10T00:11:56.290Z,6.48
2023-04-10T00:12:56.270Z,6.46
2023-04-10T00:13:56.251Z,6.46
2023-04-10T00:14:56.264Z,6.44
2023-04-10T00:15:56.249Z,6.42
2023-04-10T00:16:56.309Z,6.36
2023-04-10T00:17:56.255Z,6.33
2023-04-10T00:18:56.206Z,6.31
2023-04-10T00:19:59.198Z,6.30
2023-04-10T00:20:59.234Z,6.26
2023-04-10T00:21:56.142Z,6.24
2023-04-10T00:22:56.139Z,6.17
2023-04-10T00:23:56.267Z,6.11
2023-04-10T00:24:56.124Z,6.07
2023-04-10T00:25:56.090Z,6.05
2023-04-10T00:26:56.130Z,6.08
2023-04-10T00:27:56.067Z,6.12
2023-04-10T00:28:56.066Z,6.16
2023-04-10T00:29:56.037Z,6.19
2023-04-10T00:30:56.034Z,6.20
2023-04-10T00:31:56.040Z,6.22
2023-04-10T00:32:56.071Z,6.27
2023-04-10T00:33:56.218Z,6.31
2023-04-10T00:34:55.986Z,6.33
2023-04-10T00:35:55.985Z,6.36
2023-04-10T00:36:55.945Z,6.38
2023-04-10T00:37:55.935Z,6.39
2023-04-10T00:38:56.056Z,6.42
2023-04-10T00:39:58.916Z,6.42
2023-04-10T00:40:58.899Z,6.46
2023-04-10T00:41:55.897Z,6.48
2023-04-10T00:42:55.869Z,6.48
2023-04-10T00:43:55.866Z,6.46
2023-04-10T00:44:55.907Z,6.48
2023-04-10T00:45:55.874Z,6.48
2023-04-10T00:46:55.818Z,6.49
2023-04-10T00:47:55.903Z,6.49
2023-04-10T00:48:55.802Z,6.49
2023-04-10T00:49:55.785Z,6.51
2023-04-10T00:50:55.823Z,6.51
2023-04-10T00:51:57.832Z,6.51
2023-04-10T00:52:55.741Z,6.52
2023-04-10T00:53:56.150Z,6.52
2023-04-10T00:54:55.711Z,6.51
2023-04-10T00:55:55.724Z,6.49
2023-04-10T00:56:55.710Z,6.49
2023-04-10T00:57:55.660Z,6.51
2023-04-10T00:58:55.665Z,6.51
2023-04-10T00:59:58.640Z,6.51
2023-04-10T01:00:58.739Z,6.49
2023-04-10T01:01:55.806Z,6.51
2023-04-10T01:02:55.953Z,6.49
2023-04-10T01:03:55.966Z,6.48
2023-04-10T01:04:55.566Z,6.51
2023-04-10T01:05:55.551Z,6.51
2023-04-10T01:06:55.602Z,6.51
2023-04-10T01:07:55.529Z,6.49
2023-04-10T01:08:55.512Z,6.51
2023-04-10T01:09:55.494Z,6.51
2023-04-10T01:10:55.512Z,6.54
2023-04-10T01:11:55.477Z,6.54
2023-04-10T01:12:55.511Z,6.54
2023-04-10T01:13:55.738Z,6.56
2023-04-10T01:14:55.440Z,6.57
2023-04-10T01:15:55.414Z,6.56
2023-04-10T01:16:55.462Z,6.56
2023-04-10T01:17:55.461Z,6.56
2023-04-10T01:18:55.451Z,6.59
2023-04-10T01:19:58.375Z,6.62
2023-04-10T01:20:58.356Z,6.63
2023-04-10T01:21:55.339Z,6.64
2023-04-10T01:22:55.322Z,6.63
2023-04-10T01:23:55.787Z,6.64
2023-04-10T01:24:55.295Z,6.64
2023-04-10T01:25:55.289Z,6.64
2023-04-10T01:26:55.264Z,6.63
2023-04-10T01:27:55.270Z,6.66
2023-04-10T01:28:55.247Z,6.66
2023-04-10T01:29:55.258Z,6.67
2023-04-10T01:30:55.271Z,6.67
2023-04-10T01:31:55.276Z,6.69
2023-04-10T01:32:55.214Z,6.72
2023-04-10T01:33:55.367Z,6.70
2023-04-10T01:34:55.215Z,6.72
2023-04-10T01:35:55.220Z,6.72
2023-04-10T01:36:55.161Z,6.74
2023-04-10T01:37:55.123Z,6.70
2023-04-10T01:38:55.108Z,6.74
2023-04-10T01:39:58.160Z,6.72
2023-04-10T01:40:58.085Z,6.70
2023-04-10T01:41:55.088Z,6.67
2023-04-10T01:42:55.056Z,6.70
2023-04-10T01:43:55.219Z,6.67
2023-04-10T01:44:55.048Z,6.69
2023-04-10T01:45:55.078Z,6.69
2023-04-10T01:46:55.001Z,6.69
2023-04-10T01:47:55.063Z,6.69
2023-04-10T01:48:54.973Z,6.70
2023-04-10T01:49:54.972Z,6.72
2023-04-10T01:50:54.965Z,6.72
2023-04-10T01:51:54.991Z,6.74
2023-04-10T01:52:54.921Z,6.70
2023-04-10T01:53:55.157Z,6.72
2023-04-10T01:54:54.910Z,6.70
2023-04-10T01:55:54.884Z,6.69
2023-04-10T01:56:54.887Z,6.67
2023-04-10T01:57:55.036Z,6.64
2023-04-10T01:58:54.836Z,6.63
2023-04-10T01:59:57.855Z,6.62
2023-04-10T02:00:57.819Z,6.62
2023-04-10T02:01:54.890Z,6.62
2023-04-10T02:02:54.895Z,6.62
2023-04-10T02:03:55.032Z,6.60
2023-04-10T02:04:54.800Z,6.62
2023-04-10T02:05:54.745Z,6.62
2023-04-10T02:06:54.726Z,6.63
2023-04-10T02:07:54.741Z,6.62
2023-04-10T02:08:54.709Z,6.62
2023-04-10T02:09:54.720Z,6.62
2023-04-10T02:10:54.682Z,6.63
2023-04-10T02:11:54.697Z,6.60
2023-04-10T02:12:54.652Z,6.62
2023-04-10T02:13:54.845Z,6.59
2023-04-10T02:14:54.666Z,6.59
2023-04-10T02:15:54.654Z,6.59
2023-04-10T02:16:54.595Z,6.57
2023-04-10T02:17:54.658Z,6.57
2023-04-10T02:18:54.566Z,6.56
2023-04-10T02:19:57.600Z,6.54
2023-04-10T02:20:57.610Z,6.52
2023-04-10T02:21:54.542Z,6.49
2023-04-10T02:22:54.574Z,6.48
2023-04-10T02:23:54.720Z,6.46
2023-04-10T02:24:54.554Z,6.48
2023-04-10T02:25:54.491Z,6.45
2023-04-10T02:26:54.465Z,6.45
2023-04-10T02:27:54.449Z,6.45
2023-04-10T02:28:54.457Z,6.45
2023-04-10T02:29:54.418Z,6.44
2023-04-10T02:30:54.477Z,6.44
2023-04-10T02:31:54.409Z,6.42
2023-04-10T02:32:54.407Z,6.42
2023-04-10T02:33:54.460Z,6.42
2023-04-10T02:34:54.346Z,6.41
2023-04-10T02:35:54.454Z,6.41
2023-04-10T02:36:54.379Z,6.42
2023-04-10T02:37:55.086Z,6.41
2023-04-10T02:38:54.313Z,6.39
2023-04-10T02:39:57.289Z,6.39
2023-04-10T02:40:57.308Z,6.35
2023-04-10T02:41:54.253Z,6.30
2023-04-10T02:42:54.320Z,6.26
2023-04-10T02:43:54.396Z,6.22
2023-04-10T02:44:54.224Z,6.22
2023-04-10T02:45:54.240Z,6.19
2023-04-10T02:46:54.243Z,6.11
2023-04-10T02:47:54.220Z,6.07
2023-04-10T02:48:54.222Z,6.02
2023-04-10T02:49:54.145Z,6.04
2023-04-10T02:50:54.135Z,6.02
2023-04-10T02:51:54.125Z,6.01
2023-04-10T02:52:54.172Z,5.99
2023-04-10T02:53:54.419Z,6.01
2023-04-10T02:54:54.168Z,5.98
2023-04-10T02:55:54.067Z,5.98
2023-04-10T02:56:54.055Z,5.99
2023-04-10T02:57:54.036Z,5.98
2023-04-10T02:58:54.035Z,5.97
2023-04-10T02:59:57.074Z,5.94
2023-04-10T03:00:56.994Z,5.93
2023-04-10T03:01:54.041Z,5.94
2023-04-10T03:02:54.158Z,5.91
2023-04-10T03:03:54.263Z,5.89
2023-04-10T03:04:54.043Z,5.89
2023-04-10T03:05:53.969Z,5.87
2023-04-10T03:06:53.911Z,5.86
2023-04-10T03:07:53.920Z,5.82
2023-04-10T03:08:53.889Z,5.80
2023-04-10T03:09:53.868Z,5.75
2023-04-10T03:10:53.856Z,5.76
2023-04-10T03:11:53.915Z,5.75
2023-04-10T03:12:53.826Z,5.75
2023-04-10T03:13:54.165Z,5.76
2023-04-10T03:14:53.797Z,5.72
2023-04-10T03:15:53.840Z,5.72
2023-04-10T03:16:53.776Z,5.73
2023-04-10T03:17:53.798Z,5.72
2023-04-10T03:18:53.786Z,5.73
2023-04-10T03:19:56.735Z,5.71
2023-04-10T03:20:56.748Z,5.71
2023-04-10T03:21:53.734Z,5.68
2023-04-10T03:22:53.692Z,5.65
2023-04-10T03:23:53.992Z,5.64
2023-04-10T03:24:53.706Z,5.59
2023-04-10T03:25:53.649Z,5.57
2023-04-10T03:26:53.629Z,5.57
2023-04-10T03:27:53.645Z,5.54
2023-04-10T03:28:53.659Z,5.54
2023-04-10T03:29:53.604Z,5.54
2023-04-10T03:30:53.586Z,5.48
2023-04-10T03:31:53.612Z,5.44
2023-04-10T03:32:53.550Z,5.43
2023-04-10T03:33:53.870Z,5.44
2023-04-10T03:34:53.586Z,5.44
2023-04-10T03:35:53.572Z,5.43
2023-04-10T03:36:53.500Z,5.43
2023-04-10T03:37:53.480Z,5.43
2023-04-10T03:38:53.589Z,5.39
2023-04-10T03:39:56.473Z,5.39
2023-04-10T03:40:56.538Z,5.36
2023-04-10T03:41:53.451Z,5.35
2023-04-10T03:42:53.434Z,5.30
2023-04-10T03:43:53.607Z,5.26
2023-04-10T03:44:53.386Z,5.26
2023-04-10T03:45:53.368Z,5.23
2023-04-10T03:46:53.389Z,5.21
2023-04-10T03:47:53.390Z,5.20
2023-04-10T03:48:53.321Z,5.21
2023-04-10T03:49:53.374Z,5.20
2023-04-10T03:50:53.295Z,5.20
2023-04-10T03:51:53.294Z,5.20
2023-04-10T03:52:53.283Z,5.18
2023-04-10T03:53:53.703Z,5.17
2023-04-10T03:54:53.259Z,5.15
2023-04-10T03:55:53.259Z,5.12
2023-04-10T03:56:53.225Z,5.12
2023-04-10T03:57:53.199Z,5.10
2023-04-10T03:58:53.236Z,5.10
2023-04-10T03:59:56.172Z,5.07
2023-04-10T04:00:56.182Z,5.05
2023-04-10T04:01:53.293Z,5.02
2023-04-10T04:02:53.265Z,5.02
2023-04-10T04:03:53.606Z,4.99
2023-04-10T04:04:53.173Z,4.99
2023-04-10T04:05:53.097Z,4.97
2023-04-10T04:06:53.111Z,4.96
2023-04-10T04:07:53.070Z,4.92
2023-04-10T04:08:53.048Z,4.92
2023-04-10T04:09:54.799Z,4.87
2023-04-10T04:10:53.037Z,4.78
2023-04-10T04:11:53.039Z,4.75
2023-04-10T04:12:53.032Z,4.77
2023-04-10T04:13:53.218Z,4.78
2023-04-10T04:14:52.987Z,4.77
2023-04-10T04:15:52.990Z,4.77
2023-04-10T04:16:53.048Z,4.78
2023-04-10T04:17:52.961Z,4.77
2023-04-10T04:18:52.934Z,4.74
2023-04-10T04:19:55.935Z,4.73
2023-04-10T04:20:55.917Z,4.70
2023-04-10T04:21:52.904Z,4.66
2023-04-10T04:22:52.869Z,4.68
2023-04-10T04:23:53.161Z,4.68
2023-04-10T04:24:52.836Z,4.70
2023-04-10T04:25:52.868Z,4.74
2023-04-10T04:26:52.865Z,4.75
2023-04-10T04:27:52.807Z,4.77
2023-04-10T04:28:52.791Z,4.80
2023-04-10T04:29:52.793Z,4.82
2023-04-10T04:30:52.813Z,4.86
2023-04-10T04:31:52.922Z,4.87
2023-04-10T04:32:52.831Z,4.90
2023-04-10T04:33:52.955Z,4.93
2023-04-10T04:34:52.716Z,4.96
2023-04-10T04:35:52.763Z,5.00
2023-04-10T04:36:52.760Z,5.02
2023-04-10T04:37:52.713Z,5.05
2023-04-10T04:38:52.671Z,5.08
2023-04-10T04:39:55.652Z,5.10
2023-04-10T04:40:55.654Z,5.10
2023-04-10T04:41:52.653Z,5.12
2023-04-10T04:42:52.662Z,5.11
2023-04-10T04:43:52.819Z,5.14
2023-04-10T04:44:52.594Z,5.11
2023-04-10T04:45:52.625Z,5.12
2023-04-10T04:46:52.571Z,5.12
2023-04-10T04:47:52.575Z,5.14
2023-04-10T04:48:52.562Z,5.10
2023-04-10T04:49:52.531Z,5.25
2023-04-10T04:50:52.515Z,5.28
2023-04-10T04:51:52.507Z,5.32
2023-04-10T04:52:52.528Z,5.35
2023-04-10T04:53:52.756Z,5.41
2023-04-10T04:54:52.478Z,5.46
2023-04-10T04:55:52.450Z,5.50
2023-04-10T04:56:52.441Z,5.54
2023-04-10T04:57:52.414Z,5.62
2023-04-10T04:58:52.527Z,5.69
2023-04-10T04:59:55.418Z,5.84
2023-04-10T05:00:55.486Z,5.99
2023-04-10T05:01:52.445Z,6.16
2023-04-10T05:02:52.478Z,6.35
2023-04-10T05:03:52.514Z,6.56
2023-04-10T05:04:52.347Z,6.77
2023-04-10T05:05:52.309Z,6.93
2023-04-10T05:06:52.287Z,7.02
2023-04-10T05:07:52.327Z,7.23
2023-04-10T05:08:52.412Z,7.43
2023-04-10T05:09:52.248Z,7.58
2023-04-10T05:10:52.261Z,7.72
2023-04-10T05:11:52.217Z,7.76
2023-04-10T05:12:52.208Z,7.83
2023-04-10T05:13:52.244Z,7.85
2023-04-10T05:14:52.175Z,7.87
2023-04-10T05:15:52.244Z,7.90
2023-04-10T05:16:52.161Z,7.85
2023-04-10T05:17:52.339Z,7.85
2023-04-10T05:18:52.504Z,7.88
2023-04-10T05:19:55.106Z,7.97
2023-04-10T05:20:55.104Z,8.08
2023-04-10T05:21:52.112Z,8.20
2023-04-10T05:22:52.085Z,8.28
2023-04-10T05:23:52.053Z,8.24
2023-04-10T05:24:52.068Z,8.23
2023-04-10T05:25:52.029Z,8.19
2023-04-10T05:26:52.039Z,8.13
2023-04-10T05:27:51.999Z,8.12
2023-04-10T05:28:52.340Z,8.13
2023-04-10T05:29:51.994Z,8.24
2023-04-10T05:30:51.967Z,8.37
2023-04-10T05:31:53.210Z,8.51
2023-04-10T05:32:52.033Z,8.70
2023-04-10T05:33:51.924Z,8.84
2023-04-10T05:34:51.960Z,8.87
2023-04-10T05:35:51.975Z,8.79
2023-04-10T05:36:51.887Z,8.71
2023-04-10T05:37:51.878Z,8.58
2023-04-10T05:38:51.926Z,8.46
2023-04-10T05:39:54.873Z,8.44
2023-04-10T05:40:54.900Z,8.36
2023-04-10T05:41:51.817Z,8.31
2023-04-10T05:42:51.804Z,8.27
2023-04-10T05:43:51.851Z,8.24
2023-04-10T05:44:51.786Z,8.23
2023-04-10T05:45:51.781Z,8.19
2023-04-10T05:46:51.871Z,8.20
2023-04-10T05:47:51.825Z,8.20
2023-04-10T05:48:52.166Z,8.26
2023-04-10T05:49:51.776Z,8.28
2023-04-10T05:50:51.719Z,8.33
2023-04-10T05:51:51.683Z,8.31
2023-04-10T05:52:51.668Z,8.34
2023-04-10T05:53:51.657Z,8.31
2023-04-10T05:54:51.649Z,8.33
2023-04-10T05:55:51.673Z,8.36
2023-04-10T05:56:51.640Z,8.38
2023-04-10T05:57:51.596Z,8.45
2023-04-10T05:58:51.754Z,8.48
2023-04-10T05:59:54.584Z,8.48
2023-04-10T06:00:54.615Z,8.52
2023-04-10T06:01:51.602Z,8.56
2023-04-10T06:02:51.654Z,8.61
2023-04-10T06:03:51.655Z,8.64
2023-04-10T06:04:51.740Z,8.66
2023-04-10T06:05:51.498Z,8.66
2023-04-10T06:06:51.515Z,8.66
2023-04-10T06:07:51.499Z,8.67
2023-04-10T06:08:51.657Z,8.67
2023-04-10T06:09:51.441Z,8.69
2023-04-10T06:10:51.420Z,8.69
2023-04-10T06:11:51.403Z,8.70
2023-04-10T06:12:51.458Z,8.71
2023-04-10T06:13:51.380Z,8.71
2023-04-10T06:14:51.370Z,8.73
2023-04-10T06:15:51.402Z,8.74
2023-04-10T06:16:51.347Z,8.76
2023-04-10T06:17:51.338Z,8.78
2023-04-10T06:18:51.381Z,8.76
2023-04-10T06:19:54.301Z,8.71
2023-04-10T06:20:54.293Z,8.70
2023-04-10T06:21:53.842Z,8.66
2023-04-10T06:22:51.273Z,8.66
2023-04-10T06:23:51.517Z,8.64
2023-04-10T06:24:51.235Z,8.64
2023-04-10T06:25:51.219Z,8.63
2023-04-10T06:26:51.223Z,8.64
2023-04-10T06:27:51.188Z,8.63
2023-04-10T06:28:51.177Z,8.67
2023-04-10T06:29:51.190Z,8.71
2023-04-10T06:30:51.400Z,8.74
2023-04-10T06:31:51.388Z,8.81
2023-04-10T06:32:51.180Z,8.84
2023-04-10T06:33:51.104Z,8.89
2023-04-10T06:34:51.139Z,8.94
2023-04-10T06:35:51.143Z,9.00
2023-04-10T06:36:51.073Z,9.06
2023-04-10T06:37:51.060Z,9.14
2023-04-10T06:38:51.217Z,9.18
2023-04-10T06:39:54.072Z,9.26
2023-04-10T06:40:54.023Z,9.29
2023-04-10T06:41:51.000Z,9.39
2023-04-10T06:42:50.990Z,9.41
2023-04-10T06:43:51.089Z,9.47
2023-04-10T06:44:50.963Z,9.54
2023-04-10T06:45:51.010Z,9.55
2023-04-10T06:46:51.020Z,9.59
2023-04-10T06:47:50.931Z,9.64
2023-04-10T06:48:50.920Z,9.69
2023-04-10T06:49:50.895Z,9.76
2023-04-10T06:50:50.881Z,9.82
2023-04-10T06:51:50.871Z,9.89
2023-04-10T06:52:50.895Z,9.95
2023-04-10T06:53:50.878Z,10.02
2023-04-10T06:54:50.833Z,10.10
2023-04-10T06:55:50.815Z,10.16
2023-04-10T06:56:50.827Z,10.20
2023-04-10T06:57:50.803Z,10.26
2023-04-10T06:58:50.792Z,10.34
2023-04-10T06:59:53.753Z,10.40
2023-04-10T07:00:53.927Z,10.41
2023-04-10T07:01:50.735Z,10.42
2023-04-10T07:02:50.817Z,10.48
2023-04-10T07:03:50.753Z,10.51
2023-04-10T07:04:50.686Z,10.56
2023-04-10T07:05:50.679Z,10.63
2023-04-10T07:06:50.702Z,10.67
2023-04-10T07:07:50.689Z,10.68
2023-04-10T07:08:50.640Z,10.72
2023-04-10T07:09:50.659Z,10.78
2023-04-10T07:10:50.653Z,10.84
2023-04-10T07:11:50.666Z,10.92
2023-04-10T07:12:50.585Z,10.94
2023-04-10T07:13:50.566Z,10.96
2023-04-10T07:14:50.607Z,10.94
2023-04-10T07:15:50.700Z,10.99
2023-04-10T07:16:50.577Z,11.00
2023-04-10T07:17:50.554Z,11.04
2023-04-10T07:18:50.518Z,11.08
2023-04-10T07:19:53.543Z,11.12
2023-04-10T07:20:53.488Z,11.15
2023-04-10T07:21:50.484Z,11.23
2023-04-10T07:22:50.476Z,11.29
2023-04-10T07:23:50.441Z,11.36
2023-04-10T07:24:50.457Z,11.44
2023-04-10T07:25:50.442Z,11.47
2023-04-10T07:26:50.421Z,11.51
2023-04-10T07:27:50.389Z,11.51
2023-04-10T07:28:50.377Z,11.51
2023-04-10T07:29:50.384Z,11.52
2023-04-10T07:30:50.365Z,11.57
2023-04-10T07:31:50.356Z,11.62
2023-04-10T07:32:50.524Z,11.68
2023-04-10T07:33:50.464Z,11.75
2023-04-10T07:34:50.317Z,11.80
2023-04-10T07:35:50.330Z,11.81
2023-04-10T07:36:50.305Z,11.87
2023-04-10T07:37:50.257Z,11.91
2023-04-10T07:38:50.249Z,11.99
2023-04-10T07:39:53.218Z,11.97
2023-04-10T07:40:53.219Z,11.99
2023-04-10T07:41:50.226Z,12.04
2023-04-10T07:42:51.463Z,12.06
2023-04-10T07:43:50.173Z,12.12
2023-04-10T07:44:50.176Z,12.12
2023-04-10T07:45:50.221Z,12.17
2023-04-10T07:46:50.138Z,12.21
2023-04-10T07:47:50.175Z,12.18
2023-04-10T07:48:50.137Z,12.20
2023-04-10T07:49:50.100Z,12.20
2023-04-10T07:50:50.098Z,12.24
2023-04-10T07:51:50.122Z,12.25
2023-04-10T07:52:50.071Z,12.28
2023-04-10T07:53:50.109Z,12.31
2023-04-10T07:54:50.034Z,12.40
2023-04-10T07:55:50.047Z,12.43
2023-04-10T07:56:50.001Z,12.47
2023-04-10T07:57:49.984Z,12.55
2023-04-10T07:58:50.005Z,12.60
2023-04-10T07:59:52.994Z,12.62
2023-04-10T08:00:53.001Z,12.65
2023-04-10T08:01:50.013Z,12.72
2023-04-10T08:02:50.038Z,12.78
2023-04-10T08:03:50.069Z,12.80
2023-04-10T08:04:49.992Z,12.83
2023-04-10T08:05:49.875Z,12.85
2023-04-10T08:06:49.958Z,12.85
2023-04-10T08:07:49.851Z,12.91
2023-04-10T08:08:49.859Z,12.97
2023-04-10T08:09:49.834Z,12.98
2023-04-10T08:10:49.814Z,13.04
2023-04-10T08:11:49.840Z,13.04
2023-04-10T08:12:49.787Z,13.09
2023-04-10T08:13:49.762Z,13.16
2023-04-10T08:14:49.747Z,13.23
2023-04-10T08:15:49.744Z,13.23
2023-04-10T08:16:49.818Z,13.23
2023-04-10T08:17:49.784Z,13.25
2023-04-10T08:18:49.705Z,13.28
2023-04-10T08:19:52.701Z,13.31
2023-04-10T08:20:52.701Z,13.33
2023-04-10T08:21:49.713Z,13.39
2023-04-10T08:22:49.659Z,13.44
2023-04-10T08:23:49.636Z,13.50
2023-04-10T08:24:49.648Z,13.54
2023-04-10T08:25:49.591Z,13.56
2023-04-10T08:26:49.582Z,13.62
2023-04-10T08:27:49.630Z,13.67
2023-04-10T08:28:49.570Z,13.72
2023-04-10T08:29:49.541Z,13.78
2023-04-10T08:30:49.581Z,13.81
2023-04-10T08:31:49.572Z,13.90
2023-04-10T08:32:49.546Z,13.99
2023-04-10T08:33:49.534Z,14.07
2023-04-10T08:34:49.497Z,14.15
2023-04-10T08:35:49.517Z,14.22
2023-04-10T08:36:49.461Z,14.28
2023-04-10T08:37:53.573Z,14.32
2023-04-10T08:38:50.448Z,14.35
2023-04-10T08:39:52.428Z,14.37
2023-04-10T08:40:52.395Z,14.47
2023-04-10T08:41:49.389Z,14.51
2023-04-10T08:42:49.392Z,14.58
2023-04-10T08:43:49.358Z,14.58
2023-04-10T08:44:49.379Z,14.53
2023-04-10T08:45:49.339Z,14.58
2023-04-10T08:46:49.311Z,14.58
2023-04-10T08:47:49.365Z,14.65
2023-04-10T08:48:49.372Z,14.65
2023-04-10T08:49:49.300Z,14.69
2023-04-10T08:50:49.307Z,14.73
2023-04-10T08:51:49.349Z,14.78
2023-04-10T08:52:49.238Z,14.85
2023-04-10T08:53:49.242Z,14.94
2023-04-10T08:54:49.255Z,14.97
2023-04-10T08:55:49.222Z,15.02
2023-04-10T08:56:49.214Z,15.09
2023-04-10T08:57:58.010Z,15.17
2023-04-10T08:58:50.201Z,15.24
2023-04-10T08:59:52.164Z,15.27
2023-04-10T09:00:52.171Z,15.29
2023-04-10T09:01:49.261Z,15.35
2023-04-10T09:02:49.261Z,15.42
2023-04-10T09:03:49.243Z,15.47
2023-04-10T09:04:49.174Z,15.59
2023-04-10T09:05:49.106Z,15.70
2023-04-10T09:06:49.041Z,15.64
2023-04-10T09:07:49.026Z,15.65
2023-04-10T09:08:49.035Z,15.62
2023-04-10T09:09:49.004Z,15.65
2023-04-10T09:10:49.021Z,15.64
2023-04-10T09:11:49.006Z,15.61
2023-04-10T09:12:48.959Z,15.67
2023-04-10T09:13:48.943Z,15.73
2023-04-10T09:14:48.934Z,15.77
2023-04-10T09:15:48.974Z,15.83
2023-04-10T09:16:48.901Z,15.88
2023-04-10T09:17:48.977Z,15.92
2023-04-10T09:18:48.901Z,15.95
2023-04-10T09:19:51.855Z,15.98
2023-04-10T09:20:51.855Z,16.01
2023-04-10T09:21:48.858Z,16.05
2023-04-10T09:22:48.811Z,16.08
2023-04-10T09:23:48.858Z,16.01
2023-04-10T09:24:48.811Z,16.02
2023-04-10T09:25:51.109Z,16.01
2023-04-10T09:26:48.759Z,16.05
2023-04-10T09:27:48.770Z,16.12
2023-04-10T09:28:48.785Z,16.15
2023-04-10T09:29:48.717Z,16.16
2023-04-10T09:30:48.729Z,16.21
2023-04-10T09:31:48.783Z,16.28
2023-04-10T09:32:48.757Z,16.29
2023-04-10T09:33:48.668Z,16.31
2023-04-10T09:34:48.699Z,16.35
2023-04-10T09:35:48.638Z,16.42
2023-04-10T09:36:48.641Z,16.51
2023-04-10T09:37:48.629Z,16.58
2023-04-10T09:38:48.602Z,16.64
2023-04-10T09:39:51.631Z,16.68
2023-04-10T09:40:53.676Z,16.71
2023-04-10T09:41:48.561Z,16.65
2023-04-10T09:42:48.543Z,16.65
2023-04-10T09:43:48.528Z,16.68
2023-04-10T09:44:48.519Z,16.72
2023-04-10T09:45:48.530Z,16.71
2023-04-10T09:46:48.520Z,16.72
2023-04-10T09:47:48.494Z,16.65
2023-04-10T09:48:48.470Z,16.58
2023-04-10T09:49:48.548Z,16.64
2023-04-10T09:50:48.462Z,16.71
2023-04-10T09:51:48.422Z,16.78
2023-04-10T09:52:48.411Z,16.83
2023-04-10T09:53:48.396Z,16.91
2023-04-10T09:54:48.385Z,17.04
2023-04-10T09:55:48.403Z,17.08
2023-04-10T09:56:48.397Z,17.06
2023-04-10T09:57:48.342Z,17.05
2023-04-10T09:58:48.328Z,16.99
2023-04-10T09:59:51.332Z,16.94
2023-04-10T10:00:51.321Z,16.97
2023-04-10T10:01:48.356Z,16.96
2023-04-10T10:02:48.410Z,16.89
2023-04-10T10:03:48.316Z,16.89
2023-04-10T10:04:48.312Z,16.86
2023-04-10T10:05:48.302Z,16.84
2023-04-10T10:06:48.219Z,16.87
2023-04-10T10:07:48.202Z,16.90
2023-04-10T10:08:48.480Z,16.90
2023-04-10T10:09:48.181Z,16.94
2023-04-10T10:10:48.193Z,16.99
2023-04-10T10:11:48.198Z,17.08
2023-04-10T10:12:48.137Z,17.20
2023-04-10T10:13:48.138Z,17.27
2023-04-10T10:14:48.113Z,17.33
2023-04-10T10:15:48.114Z,17.27
2023-04-10T10:16:48.184Z,17.24
2023-04-10T10:17:48.264Z,17.11
2023-04-10T10:18:48.058Z,17.04
2023-04-10T10:19:51.144Z,17.04
2023-04-10T10:20:51.061Z,17.05
2023-04-10T10:21:48.026Z,17.08
2023-04-10T10:22:48.072Z,17.15
2023-04-10T10:23:48.126Z,17.26
2023-04-10T10:24:48.016Z,17.38
2023-04-10T10:25:48.064Z,17.44
2023-04-10T10:26:48.008Z,17.45
2023-04-10T10:27:48.114Z,17.49
2023-04-10T10:28:48.227Z,17.56
2023-04-10T10:29:47.978Z,17.56
2023-04-10T10:30:47.915Z,17.56
2023-04-10T10:31:48.003Z,17.59
2023-04-10T10:32:47.990Z,17.57
2023-04-10T10:33:47.876Z,17.57
2023-04-10T10:34:47.858Z,17.65
2023-04-10T10:35:47.852Z,17.68
2023-04-10T10:36:47.866Z,17.74
2023-04-10T10:37:47.813Z,17.78
2023-04-10T10:38:47.827Z,17.78
2023-04-10T10:39:50.786Z,17.85
2023-04-10T10:40:50.790Z,17.94
2023-04-10T10:41:48.538Z,18.04
2023-04-10T10:42:47.793Z,18.05
2023-04-10T10:43:47.805Z,18.04
2023-04-10T10:44:47.736Z,18.07
2023-04-10T10:45:47.837Z,18.11
2023-04-10T10:46:47.718Z,18.13
2023-04-10T10:47:47.724Z,18.05
2023-04-10T10:48:47.742Z,18.13
2023-04-10T10:49:47.671Z,18.08
2023-04-10T10:50:47.645Z,18.08
2023-04-10T10:51:47.716Z,18.08
2023-04-10T10:52:47.612Z,18.10
2023-04-10T10:53:47.637Z,18.11
2023-04-10T10:54:57.267Z,18.15
2023-04-10T10:55:48.584Z,18.16
2023-04-10T10:56:47.560Z,18.22
2023-04-10T10:57:47.579Z,18.26
2023-04-10T10:58:47.531Z,18.33
2023-04-10T10:59:50.596Z,18.41
2023-04-10T11:00:50.558Z,18.38
2023-04-10T11:01:47.639Z,18.43
2023-04-10T11:02:47.552Z,18.43
2023-04-10T11:03:47.622Z,18.44
2023-04-10T11:04:47.452Z,18.45
2023-04-10T11:05:47.496Z,18.43
2023-04-10T11:06:47.417Z,18.40
2023-04-10T11:07:47.419Z,18.35
2023-04-10T11:08:47.389Z,18.33
2023-04-10T11:09:47.399Z,18.33
2023-04-10T11:10:47.361Z,18.35
2023-04-10T11:11:47.405Z,18.40
2023-04-10T11:12:47.343Z,18.44
2023-04-10T11:13:47.336Z,18.55
2023-04-10T11:14:47.302Z,18.56
2023-04-10T11:15:47.296Z,18.50
2023-04-10T11:16:47.352Z,18.52
2023-04-10T11:17:47.358Z,18.52
2023-04-10T11:18:51.239Z,18.55
2023-04-10T11:19:51.240Z,18.53
2023-04-10T11:20:50.238Z,18.38
2023-04-10T11:21:47.216Z,18.38
2023-04-10T11:22:47.204Z,18.33
2023-04-10T11:23:47.204Z,18.34
2023-04-10T11:24:47.165Z,18.34
2023-04-10T11:25:47.193Z,18.22
2023-04-10T11:26:47.130Z,18.15
2023-04-10T11:27:47.142Z,18.16
2023-04-10T11:28:47.136Z,18.18
2023-04-10T11:29:47.095Z,18.20
2023-04-10T11:30:47.088Z,18.22
2023-04-10T11:31:47.106Z,18.28
2023-04-10T11:32:47.127Z,18.26
2023-04-10T11:33:47.037Z,18.23
2023-04-10T11:34:47.031Z,18.16
2023-04-10T11:35:47.043Z,18.16
2023-04-10T11:36:46.987Z,18.13
2023-04-10T11:37:46.979Z,18.08
2023-04-10T11:38:47.020Z,18.15
2023-04-10T11:39:49.944Z,18.18
2023-04-10T11:40:49.946Z,18.25
2023-04-10T11:41:46.929Z,18.23
2023-04-10T11:42:46.912Z,18.22
2023-04-10T11:43:46.887Z,18.25
2023-04-10T11:44:48.782Z,18.29
2023-04-10T11:45:46.866Z,18.41
2023-04-10T11:46:46.853Z,18.50
2023-04-10T11:47:46.868Z,18.52
2023-04-10T11:48:46.837Z,18.59
2023-04-10T11:49:46.845Z,18.65
2023-04-10T11:50:46.797Z,18.66
2023-04-10T11:51:46.779Z,18.52
2023-04-10T11:52:46.767Z,18.49
2023-04-10T11:53:46.789Z,18.47
2023-04-10T11:54:46.738Z,18.37
2023-04-10T11:55:46.797Z,18.25
2023-04-10T11:56:46.718Z,18.16
2023-04-10T11:57:46.701Z,18.16
2023-04-10T11:58:46.690Z,18.22
2023-04-10T11:59:49.779Z,18.28
2023-04-10T12:00:49.770Z,18.28
2023-04-10T12:01:46.745Z,18.26
2023-04-10T12:02:46.735Z,18.22
2023-04-10T12:03:46.716Z,18.23
2023-04-10T12:04:46.824Z,18.28
2023-04-10T12:05:46.636Z,18.34
2023-04-10T12:06:46.622Z,18.33
2023-04-10T12:07:46.577Z,18.38
2023-04-10T12:08:46.550Z,18.35
2023-04-10T12:09:46.561Z,18.41
2023-04-10T12:10:46.521Z,18.45
2023-04-10T12:11:46.525Z,18.52
2023-04-10T12:12:46.536Z,18.62
2023-04-10T12:13:46.517Z,18.62
2023-04-10T12:14:46.474Z,18.59
2023-04-10T12:15:46.507Z,18.56
2023-04-10T12:16:46.489Z,18.59
2023-04-10T12:17:46.499Z,18.58
2023-04-10T12:18:46.439Z,18.45
2023-04-10T12:19:49.405Z,18.43
2023-04-10T12:20:49.400Z,18.47
2023-04-10T12:21:46.386Z,18.49
2023-04-10T12:22:46.409Z,18.50
2023-04-10T12:23:46.351Z,18.50
2023-04-10T12:24:46.346Z,18.45
2023-04-10T12:25:46.326Z,18.45
2023-04-10T12:26:46.309Z,18.52
2023-04-10T12:27:46.357Z,18.53
2023-04-10T12:28:46.282Z,18.50
2023-04-10T12:29:46.290Z,18.50
2023-04-10T12:30:46.304Z,18.47
2023-04-10T12:31:46.265Z,18.55
2023-04-10T12:32:46.275Z,18.65
2023-04-10T12:33:46.257Z,18.65
2023-04-10T12:34:46.232Z,18.70
2023-04-10T12:35:46.278Z,18.63
2023-04-10T12:36:46.193Z,18.56
2023-04-10T12:37:46.179Z,18.49
2023-04-10T12:38:46.173Z,18.44
2023-04-10T12:39:49.171Z,18.49
2023-04-10T12:40:49.144Z,18.59
2023-04-10T12:41:46.118Z,18.77
2023-04-10T12:42:46.111Z,19.00
2023-04-10T12:43:46.159Z,19.18
2023-04-10T12:44:46.078Z,19.29
2023-04-10T12:45:46.106Z,19.33
2023-04-10T12:46:46.123Z,19.27
2023-04-10T12:47:46.092Z,19.26
2023-04-10T12:48:46.020Z,19.26
2023-04-10T12:49:46.046Z,19.33
2023-04-10T12:50:46.032Z,19.41
2023-04-10T12:51:46.000Z,19.36
2023-04-10T12:52:45.973Z,19.34
2023-04-10T12:53:45.988Z,19.34
2023-04-10T12:54:45.983Z,19.22
2023-04-10T12:55:45.930Z,19.09
2023-04-10T12:56:45.932Z,19.00
2023-04-10T12:57:46.023Z,18.96
2023-04-10T12:58:45.909Z,18.96
2023-04-10T12:59:48.907Z,18.99
2023-04-10T13:00:48.883Z,19.11
2023-04-10T13:01:45.934Z,19.27
2023-04-10T13:02:45.950Z,19.36
2023-04-10T13:03:45.939Z,19.45
2023-04-10T13:04:45.835Z,19.56
2023-04-10T13:05:45.841Z,19.64
2023-04-10T13:06:45.787Z,19.70